Time;durP1;ratioP1;P1;durP2;ratioP2;P2;SDS_P1;SDS_P2;PMS_P1;PMS_P2;Temp;Humidity;BMP_temperature;BMP_pressure;BME280_temperature;BME280_humidity;BME280_pressure;Samples;Min_cycle;Max_cycle;Signal;HPM_P1;HPM_P2
2023/01/28 00:01:50;;;;;;;24.65;20.10;;;2.10;99.90;;;;;;5097312;28;20043;-68
2023/01/28 00:04:17;;;;;;;24.17;19.05;;;2.10;99.90;;;;;;5090913;28;20148;-67
2023/01/28 00:06:43;;;;;;;25.95;19.92;;;2.10;99.90;;;;;;5102207;28;20043;-67
2023/01/28 00:09:08;;;;;;;27.70;21.42;;;2.10;99.90;;;;;;5097890;28;20039;-67
2023/01/28 00:11:34;;;;;;;25.70;20.85;;;2.10;99.90;;;;;;5091481;28;20066;-67
2023/01/28 00:14:00;;;;;;;24.27;19.30;;;2.20;99.90;;;;;;5100016;28;20079;-67
2023/01/28 00:16:26;;;;;;;26.17;18.35;;;2.10;99.90;;;;;;5091736;28;20040;-67
2023/01/28 00:18:53;;;;;;;20.58;17.98;;;2.10;99.90;;;;;;5091761;28;20032;-67
2023/01/28 00:21:19;;;;;;;24.88;19.65;;;2.10;99.90;;;;;;5099130;28;20051;-67
2023/01/28 00:23:54;;;;;;;22.35;19.52;;;2.00;99.90;;;;;;5098425;28;20039;-67
2023/01/28 00:26:22;;;;;;;22.98;18.90;;;2.10;99.90;;;;;;5089592;28;20532;-67
2023/01/28 00:28:47;;;;;;;24.58;19.15;;;2.10;99.90;;;;;;5091693;28;20036;-67
2023/01/28 00:31:26;;;;;;;23.52;19.40;;;2.00;99.90;;;;;;5089628;28;20086;-67
2023/01/28 00:33:53;;;;;;;27.67;19.70;;;2.00;99.90;;;;;;5090286;28;20063;-67
2023/01/28 00:36:20;;;;;;;24.02;18.98;;;2.00;99.90;;;;;;5096312;28;20028;-67
2023/01/28 00:38:53;;;;;;;19.88;17.48;;;2.00;99.90;;;;;;5101238;28;20097;-67
2023/01/28 00:41:21;;;;;;;22.08;17.27;;;1.90;99.90;;;;;;5102884;28;20039;-67
2023/01/28 00:43:48;;;;;;;18.25;16.08;;;1.90;99.90;;;;;;5093896;28;20753;-67
2023/01/28 00:46:14;;;;;;;17.75;15.85;;;1.80;99.90;;;;;;5093346;28;20486;-67
2023/01/28 00:48:42;;;;;;;18.85;16.90;;;1.90;99.90;;;;;;5100626;28;20046;-66
2023/01/28 00:51:09;;;;;;;17.02;15.32;;;1.90;99.90;;;;;;5107127;28;20146;-67
2023/01/28 00:53:37;;;;;;;17.52;15.02;;;1.80;99.90;;;;;;5097455;28;20051;-67
2023/01/28 00:56:05;;;;;;;18.38;15.93;;;1.80;99.90;;;;;;5096870;27;20488;-67
2023/01/28 00:58:31;;;;;;;16.42;14.75;;;1.80;99.90;;;;;;5100799;28;20085;-67
2023/01/28 01:01:09;;;;;;;19.70;16.35;;;1.80;99.90;;;;;;5087415;28;20051;-67
2023/01/28 01:03:35;;;;;;;16.52;14.82;;;1.90;99.90;;;;;;5088137;28;20043;-67
2023/01/28 01:06:01;;;;;;;19.17;16.25;;;1.80;99.90;;;;;;5089541;28;20887;-67
2023/01/28 01:08:33;;;;;;;18.92;15.90;;;1.90;99.90;;;;;;5087564;28;20056;-67
2023/01/28 01:11:03;;;;;;;20.65;17.85;;;1.80;99.90;;;;;;5098469;28;20047;-67
2023/01/28 01:13:31;;;;;;;19.25;17.25;;;1.80;99.90;;;;;;5099326;28;20047;-67
2023/01/28 01:16:02;;;;;;;21.20;17.23;;;1.80;99.90;;;;;;5101440;28;20104;-67
2023/01/28 01:18:28;;;;;;;20.73;17.40;;;1.80;99.90;;;;;;5104868;28;20040;-67
2023/01/28 01:20:57;;;;;;;18.98;16.35;;;1.80;99.90;;;;;;5102833;28;20042;-67
2023/01/28 01:23:25;;;;;;;23.08;17.67;;;1.80;99.90;;;;;;5094174;28;20043;-67
2023/01/28 01:25:51;;;;;;;8.98;5.28;;;1.90;99.90;;;;;;5106181;28;20050;-67
2023/01/28 01:28:17;;;;;;;21.55;15.43;;;1.90;99.90;;;;;;5101597;28;20039;-67
2023/01/28 01:30:42;;;;;;;16.67;14.70;;;1.90;99.90;;;;;;5099032;28;20695;-67
2023/01/28 01:33:08;;;;;;;19.20;16.15;;;1.90;99.90;;;;;;5089908;28;20058;-67
2023/01/28 01:35:34;;;;;;;16.52;14.32;;;1.90;99.90;;;;;;5093569;28;20047;-68
2023/01/28 01:37:59;;;;;;;17.92;14.15;;;1.90;99.90;;;;;;5092587;28;20413;-67
2023/01/28 01:40:28;;;;;;;18.83;14.30;;;1.80;99.90;;;;;;5086839;28;20430;-67
2023/01/28 01:42:54;;;;;;;18.58;15.25;;;1.90;99.90;;;;;;5099043;28;20459;-67
2023/01/28 01:45:20;;;;;;;19.80;14.05;;;1.80;99.90;;;;;;5100209;28;20079;-67
2023/01/28 01:47:59;;;;;;;17.13;13.98;;;1.80;99.90;;;;;;5096819;28;20489;-67
2023/01/28 01:50:30;;;;;;;18.23;14.20;;;1.80;99.90;;;;;;5105778;28;20042;-67
2023/01/28 01:53:06;;;;;;;15.60;13.77;;;1.80;99.90;;;;;;5100851;28;20052;-67
2023/01/28 01:55:34;;;;;;;12.30;8.10;;;1.80;99.90;;;;;;5086743;28;20091;-67
2023/01/28 01:58:06;;;;;;;17.52;14.50;;;1.80;99.90;;;;;;5086671;28;20040;-67
2023/01/28 02:00:32;;;;;;;20.13;14.45;;;1.80;99.90;;;;;;5088037;28;20051;-67
2023/01/28 02:02:58;;;;;;;20.67;15.30;;;1.80;99.90;;;;;;5099114;28;20035;-67
2023/01/28 02:05:24;;;;;;;19.80;14.18;;;1.80;99.90;;;;;;5100842;28;20032;-67
2023/01/28 02:07:54;;;;;;;20.13;15.98;;;1.80;99.90;;;;;;5092731;28;20911;-67
2023/01/28 02:10:21;;;;;;;9.95;5.63;;;1.80;99.90;;;;;;5101674;28;20043;-67
2023/01/28 02:12:57;;;;;;;17.95;14.85;;;1.80;99.90;;;;;;5086760;28;20516;-67
2023/01/28 02:15:24;;;;;;;16.90;12.80;;;1.80;99.90;;;;;;5090231;28;20086;-67
2023/01/28 02:17:51;;;;;;;16.67;13.73;;;1.80;99.90;;;;;;5089074;28;20051;-67
2023/01/28 02:20:30;;;;;;;16.98;13.85;;;1.80;99.90;;;;;;5101414;27;20043;-67
2023/01/28 02:23:08;;;;;;;18.60;14.60;;;1.80;99.90;;;;;;5100284;28;20048;-67
2023/01/28 02:25:42;;;;;;;17.40;14.93;;;1.80;99.90;;;;;;5090767;28;20489;-67
2023/01/28 02:28:11;;;;;;;18.10;13.80;;;1.80;99.90;;;;;;5101433;28;20337;-67
2023/01/28 02:30:57;;;;;;;;;;;1.80;99.90;;;;;;5094656;28;20052;-67
2023/01/28 02:33:40;;;;;;;11.65;6.82;;;1.80;99.90;;;;;;5074793;28;20044;-67
2023/01/28 02:36:34;;;;;;;18.58;13.90;;;1.70;99.90;;;;;;5091167;28;20044;-67
2023/01/28 02:39:05;;;;;;;16.95;14.48;;;1.80;99.90;;;;;;5105362;27;20043;-68
2023/01/28 02:41:40;;;;;;;16.23;13.98;;;1.80;99.90;;;;;;5089569;28;20044;-67
2023/01/28 02:44:05;;;;;;;17.02;12.45;;;1.80;99.90;;;;;;5094758;28;20044;-67
2023/01/28 02:49:29;;;;;;;16.17;12.82;;;1.80;99.90;;;;;;5093791;28;20774;-67
2023/01/28 02:51:57;;;;;;;18.95;13.57;;;1.80;99.90;;;;;;5088819;28;20035;-67
2023/01/28 02:54:32;;;;;;;;;;;1.80;99.90;;;;;;5092612;27;20040;-67
2023/01/28 02:57:18;;;;;;;16.50;13.45;;;1.80;99.90;;;;;;5100015;27;19924;-67
2023/01/28 02:59:55;;;;;;;16.77;12.85;;;1.80;99.90;;;;;;5091416;28;20066;-67
2023/01/28 03:02:34;;;;;;;17.42;12.98;;;1.90;99.90;;;;;;5088366;28;20637;-67
2023/01/28 03:04:59;;;;;;;;;;;1.90;99.90;;;;;;5100823;28;20054;-67
2023/01/28 03:07:30;;;;;;;17.63;13.23;;;1.90;99.90;;;;;;5108820;28;19923;-67
2023/01/28 03:09:57;;;;;;;15.30;11.93;;;1.90;99.90;;;;;;5096886;28;20037;-67
2023/01/28 03:38:21;;;;;;;;;;;1.90;99.90;;;;;;5095602;28;20052;-67
2023/01/28 03:41:01;;;;;;;16.98;12.88;;;1.80;99.90;;;;;;5097748;28;19928;-67
2023/01/28 03:43:28;;;;;;;16.73;13.00;;;1.80;99.90;;;;;;5108397;27;20047;-67
2023/01/28 03:45:54;;;;;;;14.30;11.85;;;1.90;99.90;;;;;;5108081;27;20028;-67
2023/01/28 03:48:22;;;;;;;17.45;13.65;;;1.90;99.90;;;;;;5098434;28;20053;-67
2023/01/28 03:50:49;;;;;;;19.75;14.30;;;1.90;99.90;;;;;;5088151;28;20044;-67
2023/01/28 03:53:16;;;;;;;21.08;15.45;;;1.90;99.90;;;;;;5091336;28;20075;-67
2023/01/28 03:55:43;;;;;;;19.13;14.07;;;1.90;99.90;;;;;;5090656;28;20044;-67
2023/01/28 03:58:10;;;;;;;11.75;5.80;;;1.90;99.90;;;;;;5095757;27;20047;-68
2023/01/28 04:00:40;;;;;;;18.77;15.43;;;1.80;99.90;;;;;;5090759;28;20048;-67
2023/01/28 04:03:14;;;;;;;20.10;14.93;;;1.80;99.90;;;;;;5104251;28;20047;-68
2023/01/28 04:05:56;;;;;;;24.83;15.23;;;1.90;99.90;;;;;;5096425;28;20035;-67
2023/01/28 04:08:22;;;;;;;18.92;14.15;;;1.90;99.90;;;;;;5098139;28;20043;-68
2023/01/28 04:10:48;;;;;;;22.45;16.67;;;1.80;99.90;;;;;;5099490;28;20054;-67
2023/01/28 04:13:14;;;;;;;20.42;15.82;;;1.80;99.90;;;;;;5094467;28;20049;-67
2023/01/28 04:15:42;;;;;;;21.80;15.48;;;1.80;99.90;;;;;;5098439;28;20032;-67
2023/01/28 04:18:08;;;;;;;25.15;16.20;;;1.80;99.90;;;;;;5093692;28;20054;-67
2023/01/28 04:20:35;;;;;;;21.42;16.15;;;1.80;99.90;;;;;;5098376;28;20488;-68
2023/01/28 04:23:01;;;;;;;21.90;16.00;;;1.80;99.90;;;;;;5095292;28;20094;-67
2023/01/28 04:25:26;;;;;;;27.08;16.75;;;1.80;99.90;;;;;;5090890;28;20528;-67
2023/01/28 04:27:52;;;;;;;22.77;16.60;;;1.80;99.90;;;;;;5091837;28;20047;-67
2023/01/28 04:30:18;;;;;;;26.38;17.90;;;1.80;99.90;;;;;;5103016;27;20066;-67
2023/01/28 04:32:45;;;;;;;22.50;16.88;;;1.80;99.90;;;;;;5086984;28;20043;-67
2023/01/28 04:35:11;;;;;;;21.10;16.10;;;1.80;99.90;;;;;;5105895;28;20058;-67
2023/01/28 04:37:39;;;;;;;18.10;14.18;;;1.80;99.90;;;;;;5095698;28;20283;-67
2023/01/28 04:40:05;;;;;;;21.23;15.63;;;1.80;99.90;;;;;;5098448;28;20139;-67
2023/01/28 04:42:31;;;;;;;12.57;4.72;;;1.80;99.90;;;;;;5097878;28;20035;-67
2023/01/28 04:44:57;;;;;;;20.88;16.38;;;1.80;99.90;;;;;;5099519;28;20046;-67
2023/01/28 04:47:22;;;;;;;21.77;15.82;;;1.80;99.90;;;;;;5098369;27;20401;-67
2023/01/28 04:49:48;;;;;;;22.45;17.52;;;1.80;99.90;;;;;;5098382;28;20060;-67
2023/01/28 04:52:13;;;;;;;24.83;16.27;;;1.80;99.90;;;;;;5102246;28;20500;-67
2023/01/28 04:54:39;;;;;;;26.80;17.85;;;1.80;99.90;;;;;;5089718;28;20036;-67
2023/01/28 04:57:05;;;;;;;23.52;16.42;;;1.80;99.90;;;;;;5094660;28;20040;-67
2023/01/28 04:59:30;;;;;;;20.63;17.05;;;1.80;99.90;;;;;;5096121;28;20490;-67
2023/01/28 05:01:56;;;;;;;24.70;17.58;;;1.80;99.90;;;;;;5099159;28;20835;-67
2023/01/28 05:04:22;;;;;;;26.00;17.63;;;1.80;99.90;;;;;;5095514;28;20040;-67
2023/01/28 05:06:47;;;;;;;22.60;17.17;;;1.80;99.90;;;;;;5096432;28;20435;-67
2023/01/28 05:09:13;;;;;;;22.48;16.67;;;1.90;99.90;;;;;;5101047;28;20040;-67
2023/01/28 05:11:39;;;;;;;21.73;16.08;;;1.80;99.90;;;;;;5095104;28;20032;-67
2023/01/28 05:14:05;;;;;;;23.35;16.20;;;1.80;99.90;;;;;;5096767;28;20416;-67
2023/01/28 05:16:33;;;;;;;24.48;16.45;;;1.80;99.90;;;;;;5090311;28;20544;-67
2023/01/28 05:19:00;;;;;;;23.40;17.85;;;1.80;99.90;;;;;;5096392;28;20047;-67
2023/01/28 05:21:26;;;;;;;25.42;16.48;;;1.80;99.90;;;;;;5093624;28;20047;-67
2023/01/28 05:23:51;;;;;;;23.73;16.70;;;1.80;99.90;;;;;;5097285;28;20038;-67
2023/01/28 05:26:17;;;;;;;22.60;17.23;;;1.80;99.90;;;;;;5101947;28;20047;-67
2023/01/28 05:28:43;;;;;;;24.38;17.35;;;1.80;99.90;;;;;;5103274;28;20040;-67
2023/01/28 05:31:09;;;;;;;23.50;16.67;;;1.80;99.90;;;;;;5101269;28;20058;-67
2023/01/28 05:33:35;;;;;;;22.67;17.40;;;1.80;99.90;;;;;;5099393;28;20485;-67
2023/01/28 05:36:01;;;;;;;20.63;16.83;;;1.80;99.90;;;;;;5099789;28;20096;-67
2023/01/28 05:38:26;;;;;;;21.98;16.20;;;1.80;99.90;;;;;;5093009;28;20359;-67
2023/01/28 05:40:53;;;;;;;19.50;15.18;;;1.80;99.90;;;;;;5097855;28;20196;-67
2023/01/28 05:43:19;;;;;;;19.08;15.38;;;1.80;99.90;;;;;;5096393;28;20039;-67
2023/01/28 05:45:46;;;;;;;18.90;15.05;;;1.80;99.90;;;;;;5091524;28;20036;-67
2023/01/28 05:48:13;;;;;;;20.63;15.95;;;1.70;99.90;;;;;;5092902;28;20048;-68
2023/01/28 05:50:39;;;;;;;20.63;16.08;;;1.80;99.90;;;;;;5100329;28;20028;-67
2023/01/28 05:53:06;;;;;;;25.27;15.35;;;1.70;99.90;;;;;;5096435;28;20047;-67
2023/01/28 05:55:32;;;;;;;19.08;14.57;;;1.70;99.90;;;;;;5106551;28;20522;-67
2023/01/28 05:57:57;;;;;;;17.85;14.25;;;1.70;99.90;;;;;;5106392;28;20044;-67
2023/01/28 06:00:23;;;;;;;17.73;13.32;;;1.70;99.90;;;;;;5091338;28;20086;-67
2023/01/28 06:02:50;;;;;;;15.10;13.48;;;1.70;99.90;;;;;;5104186;28;20043;-67
2023/01/28 06:05:16;;;;;;;17.40;13.05;;;1.70;99.90;;;;;;5101399;28;20110;-67
2023/01/28 06:07:48;;;;;;;17.25;14.05;;;1.70;99.90;;;;;;5104978;28;20403;-68
2023/01/28 06:10:16;;;;;;;18.80;14.05;;;1.70;99.90;;;;;;5106038;28;20044;-67
2023/01/28 06:12:43;;;;;;;16.70;13.68;;;1.70;99.90;;;;;;5091570;28;20071;-68
2023/01/28 06:15:09;;;;;;;17.65;13.38;;;1.70;99.90;;;;;;5094759;28;20827;-68
2023/01/28 06:17:35;;;;;;;16.60;13.23;;;1.70;99.90;;;;;;5107429;28;20697;-68
2023/01/28 06:20:00;;;;;;;21.88;15.20;;;1.70;99.90;;;;;;5098158;28;20105;-68
2023/01/28 06:22:26;;;;;;;18.42;13.20;;;1.70;99.90;;;;;;5100996;28;20044;-68
2023/01/28 06:24:53;;;;;;;17.45;13.10;;;1.70;99.90;;;;;;5100976;28;20059;-68
2023/01/28 06:27:18;;;;;;;15.52;12.10;;;1.70;99.90;;;;;;5092557;28;20400;-68
2023/01/28 06:29:44;;;;;;;17.15;12.35;;;1.70;99.90;;;;;;5100167;28;20038;-68
2023/01/28 06:32:09;;;;;;;14.85;12.65;;;1.70;99.90;;;;;;5099010;28;20036;-67
2023/01/28 06:34:35;;;;;;;9.52;5.40;;;1.70;99.90;;;;;;5093184;28;20092;-68
2023/01/28 06:37:03;;;;;;;16.85;12.15;;;1.70;99.90;;;;;;5109045;28;20039;-68
2023/01/28 06:39:31;;;;;;;20.85;14.15;;;1.60;99.90;;;;;;5100887;28;20047;-68
2023/01/28 06:41:57;;;;;;;17.10;13.32;;;1.70;99.90;;;;;;5088947;28;20144;-67
2023/01/28 06:44:23;;;;;;;14.77;12.77;;;1.70;99.90;;;;;;5102424;28;20059;-68
2023/01/28 06:46:49;;;;;;;15.63;12.63;;;1.70;99.90;;;;;;5105488;28;20074;-68
2023/01/28 06:49:14;;;;;;;16.23;12.13;;;1.60;99.90;;;;;;5103081;28;20032;-68
2023/01/28 06:51:40;;;;;;;15.02;12.57;;;1.60;99.90;;;;;;5100536;28;20050;-68
2023/01/28 06:54:06;;;;;;;20.15;12.80;;;1.70;99.90;;;;;;5108884;28;20050;-68
2023/01/28 06:56:32;;;;;;;16.70;12.70;;;1.70;99.90;;;;;;5108861;28;20400;-68
2023/01/28 06:58:57;;;;;;;15.55;13.13;;;1.70;99.90;;;;;;5102873;28;20766;-68
2023/01/28 07:01:24;;;;;;;17.92;12.70;;;1.70;99.90;;;;;;5105090;28;20456;-69
2023/01/28 07:03:50;;;;;;;17.38;13.57;;;1.70;99.90;;;;;;5103968;28;20042;-68
2023/01/28 07:06:16;;;;;;;16.55;13.90;;;1.70;99.90;;;;;;5086017;28;20040;-68
2023/01/28 07:08:41;;;;;;;17.67;14.55;;;1.60;99.90;;;;;;5095755;28;20065;-68
2023/01/28 07:11:07;;;;;;;16.80;13.80;;;1.70;99.90;;;;;;5107342;28;20038;-68
2023/01/28 07:13:33;;;;;;;17.13;13.68;;;1.70;99.90;;;;;;5105117;28;20477;-68
2023/01/28 07:15:59;;;;;;;17.30;14.60;;;1.70;99.90;;;;;;5101425;28;20047;-68
2023/01/28 07:18:25;;;;;;;18.15;14.18;;;1.70;99.90;;;;;;5095809;28;20075;-68
2023/01/28 07:20:51;;;;;;;19.85;15.45;;;1.70;99.90;;;;;;5100625;28;20583;-68
2023/01/28 07:23:18;;;;;;;21.27;16.23;;;1.70;99.90;;;;;;5104099;28;20709;-68
2023/01/28 07:25:43;;;;;;;18.83;15.40;;;1.70;99.90;;;;;;5100275;28;20520;-68
2023/01/28 07:28:10;;;;;;;20.95;15.43;;;1.70;99.90;;;;;;5108508;28;20051;-69
2023/01/28 07:30:36;;;;;;;17.55;15.55;;;1.60;99.90;;;;;;5094019;28;20028;-68
2023/01/28 07:33:02;;;;;;;19.88;15.63;;;1.70;99.90;;;;;;5094200;28;20545;-69
2023/01/28 07:35:28;;;;;;;20.90;16.30;;;1.70;99.90;;;;;;5104221;28;20051;-68
2023/01/28 07:37:59;;;;;;;24.42;15.07;;;1.70;99.90;;;;;;5096830;28;20885;-69
2023/01/28 07:40:27;;;;;;;19.75;16.90;;;1.70;99.90;;;;;;5104320;28;20055;-68
2023/01/28 07:42:54;;;;;;;20.55;16.27;;;1.70;99.90;;;;;;5108468;28;20051;-68
2023/01/28 07:45:20;;;;;;;23.42;16.83;;;1.70;99.90;;;;;;5106264;28;20082;-68
2023/01/28 07:48:00;;;;;;;22.38;17.50;;;1.70;99.90;;;;;;5108587;28;20083;-68
2023/01/28 07:50:28;;;;;;;19.55;16.85;;;1.70;99.90;;;;;;5104464;28;20672;-68
2023/01/28 07:52:55;;;;;;;18.88;16.33;;;1.70;99.90;;;;;;5096476;28;20046;-68
2023/01/28 07:55:22;;;;;;;17.10;15.33;;;1.70;99.90;;;;;;5099979;28;20047;-68
2023/01/28 07:57:53;;;;;;;21.45;18.25;;;1.60;99.90;;;;;;5098108;28;20080;-68
2023/01/28 08:00:20;;;;;;;19.80;16.58;;;1.60;99.90;;;;;;5099599;28;20043;-68
2023/01/28 08:02:47;;;;;;;23.27;18.23;;;1.60;99.90;;;;;;5104136;28;20054;-68
2023/01/28 08:05:17;;;;;;;22.55;16.77;;;1.60;99.90;;;;;;5103985;28;20542;-69
2023/01/28 08:07:43;;;;;;;23.05;17.80;;;1.50;99.90;;;;;;5099064;28;20040;-68
2023/01/28 08:10:11;;;;;;;23.52;17.27;;;1.50;99.90;;;;;;5103871;28;20035;-68
2023/01/28 08:12:37;;;;;;;21.30;17.83;;;1.50;99.90;;;;;;5102956;28;20040;-69
2023/01/28 08:15:04;;;;;;;20.30;15.82;;;1.40;99.90;;;;;;5099508;28;20036;-68
2023/01/28 08:17:30;;;;;;;22.33;17.07;;;1.40;99.90;;;;;;5104422;28;20040;-69
2023/01/28 08:19:56;;;;;;;19.95;16.30;;;1.40;99.90;;;;;;5104711;28;20036;-69
2023/01/28 08:22:25;;;;;;;26.80;17.58;;;1.40;99.90;;;;;;5099980;28;20051;-69
2023/01/28 08:24:51;;;;;;;20.17;16.08;;;1.30;99.90;;;;;;5089538;28;20131;-68
2023/01/28 08:27:17;;;;;;;20.10;16.58;;;1.40;99.90;;;;;;5104287;28;20047;-68
2023/01/28 08:29:42;;;;;;;14.63;6.72;;;1.40;99.90;;;;;;5103922;28;20890;-68
2023/01/28 08:32:09;;;;;;;23.92;18.17;;;1.30;99.90;;;;;;5098312;28;20082;-68
2023/01/28 08:34:35;;;;;;;23.90;19.02;;;1.30;99.90;;;;;;5093965;28;20503;-68
2023/01/28 08:37:00;;;;;;;23.25;18.85;;;1.30;99.90;;;;;;5087863;28;20032;-68
2023/01/28 08:39:26;;;;;;;24.73;18.08;;;1.30;99.90;;;;;;5087432;28;20051;-68
2023/01/28 08:41:52;;;;;;;29.83;19.65;;;1.30;99.90;;;;;;5093139;28;20817;-68
2023/01/28 08:44:17;;;;;;;20.13;16.90;;;1.30;99.90;;;;;;5079751;28;20055;-68
2023/01/28 08:46:43;;;;;;;20.55;16.90;;;1.30;99.90;;;;;;5105400;28;20099;-68
2023/01/28 08:49:08;;;;;;;21.58;18.38;;;1.30;99.90;;;;;;5103490;28;20527;-68
2023/01/28 08:51:34;;;;;;;23.92;17.58;;;1.30;99.90;;;;;;5089193;28;20043;-68
2023/01/28 08:54:01;;;;;;;25.60;18.55;;;1.30;99.90;;;;;;5094057;28;20052;-69
2023/01/28 08:56:26;;;;;;;30.73;18.33;;;1.30;99.90;;;;;;5101376;28;20202;-69
2023/01/28 08:58:52;;;;;;;32.30;20.63;;;1.30;99.90;;;;;;5091513;28;20071;-69
2023/01/28 09:01:17;;;;;;;32.75;20.55;;;1.30;99.90;;;;;;5094779;28;20039;-68
2023/01/28 09:03:43;;;;;;;24.55;18.80;;;1.40;99.90;;;;;;5105962;28;20040;-69
2023/01/28 09:06:09;;;;;;;21.95;17.38;;;1.40;99.90;;;;;;5088890;28;20547;-68
2023/01/28 09:08:34;;;;;;;25.30;18.70;;;1.40;99.90;;;;;;5100275;28;20058;-68
2023/01/28 09:11:00;;;;;;;23.83;17.08;;;1.50;99.90;;;;;;5100766;28;20120;-68
2023/01/28 09:13:27;;;;;;;21.08;16.35;;;1.50;99.90;;;;;;5105481;28;20042;-69
2023/01/28 09:15:53;;;;;;;24.30;18.48;;;1.50;99.90;;;;;;5084215;28;20080;-69
2023/01/28 09:18:19;;;;;;;25.20;15.73;;;1.60;99.90;;;;;;5093503;28;20087;-68
2023/01/28 09:20:44;;;;;;;23.08;17.20;;;1.70;99.90;;;;;;5087080;28;20048;-69
2023/01/28 09:23:11;;;;;;;25.60;16.90;;;1.70;99.90;;;;;;5092847;28;20052;-69
2023/01/28 09:25:37;;;;;;;20.92;15.95;;;1.80;99.90;;;;;;5100882;28;20051;-68
2023/01/28 09:28:03;;;;;;;18.08;14.93;;;1.90;99.90;;;;;;5095252;28;20786;-69
2023/01/28 09:30:29;;;;;;;17.98;14.32;;;2.00;99.90;;;;;;5099502;28;20040;-68
2023/01/28 09:32:56;;;;;;;18.63;13.30;;;2.00;99.90;;;;;;5096004;28;20047;-69
2023/01/28 09:35:22;;;;;;;18.77;14.95;;;2.10;99.90;;;;;;5110205;28;20055;-69
2023/01/28 09:37:48;;;;;;;16.52;13.20;;;2.10;99.90;;;;;;5104405;27;20050;-69
2023/01/28 09:40:28;;;;;;;17.25;13.52;;;2.20;99.90;;;;;;5091053;28;20085;-69
2023/01/28 09:42:58;;;;;;;17.60;13.60;;;2.20;99.90;;;;;;5098406;28;20036;-69
2023/01/28 09:45:42;;;;;;;19.20;14.52;;;2.20;99.90;;;;;;5099266;28;20050;-69
2023/01/28 09:48:22;;;;;;;16.02;13.23;;;2.20;99.90;;;;;;5104420;28;20791;-68
2023/01/28 09:50:53;;;;;;;18.02;13.90;;;2.20;99.90;;;;;;5100487;28;20055;-67
2023/01/28 09:53:23;;;;;;;16.00;11.88;;;2.20;99.90;;;;;;5094932;28;20051;-68
2023/01/28 09:55:55;;;;;;;15.25;12.35;;;2.30;99.90;;;;;;5100823;28;20176;-68
2023/01/28 09:58:21;;;;;;;15.95;14.18;;;2.40;99.90;;;;;;5105723;28;20051;-67
2023/01/28 10:00:59;;;;;;;17.25;14.07;;;2.40;99.90;;;;;;5102885;28;20047;-68
2023/01/28 10:03:43;;;;;;;17.02;13.20;;;2.50;99.90;;;;;;5101875;28;20075;-68
2023/01/28 10:06:18;;;;;;;16.70;11.65;;;2.70;99.90;;;;;;5095201;28;20048;-68
2023/01/28 10:09:09;;;;;;;15.20;11.65;;;2.80;99.90;;;;;;5104143;27;20048;-68
2023/01/28 10:12:12;;;;;;;16.35;11.93;;;3.00;99.90;;;;;;5080010;28;20047;-68
2023/01/28 10:14:41;;;;;;;15.77;13.23;;;3.20;99.90;;;;;;5101286;28;20044;-68
2023/01/28 10:17:22;;;;;;;16.20;12.25;;;3.30;99.90;;;;;;5081710;28;20412;-68
2023/01/28 10:19:58;;;;;;;15.57;12.13;;;3.50;99.90;;;;;;5098284;27;20048;-68
2023/01/28 10:22:31;;;;;;;14.77;12.50;;;3.70;99.90;;;;;;5100587;28;20071;-68
2023/01/28 10:25:05;;;;;;;14.02;11.90;;;3.80;99.90;;;;;;5096272;28;20104;-69
2023/01/28 10:27:32;;;;;;;14.30;11.52;;;3.90;99.90;;;;;;5088652;28;20309;-68
2023/01/28 10:30:08;;;;;;;17.58;12.63;;;3.90;99.90;;;;;;5098793;28;20047;-69
2023/01/28 10:32:42;;;;;;;19.40;13.65;;;4.00;99.90;;;;;;5090388;28;20586;-68
2023/01/28 10:35:07;;;;;;;17.35;13.13;;;4.00;99.90;;;;;;5104196;28;20055;-69
2023/01/28 10:37:35;;;;;;;21.98;14.13;;;4.00;99.90;;;;;;5090600;28;20040;-69
2023/01/28 10:40:03;;;;;;;14.45;11.50;;;4.10;99.90;;;;;;5091089;28;20047;-69
2023/01/28 10:42:31;;;;;;;17.00;12.75;;;4.20;99.90;;;;;;5105723;28;20104;-69
2023/01/28 10:45:02;;;;;;;19.40;12.52;;;4.50;99.90;;;;;;5087495;28;20047;-69
2023/01/28 10:48:05;;;;;;;13.55;11.15;;;4.60;99.90;;;;;;5101221;28;20075;-69
2023/01/28 10:50:31;;;;;;;16.83;12.45;;;4.70;99.90;;;;;;5108235;28;20047;-69
2023/01/28 10:52:59;;;;;;;14.18;11.23;;;4.90;99.90;;;;;;5094900;28;20039;-69
2023/01/28 10:55:54;;;;;;;13.77;11.45;;;5.00;99.90;;;;;;5091414;28;20035;-69
2023/01/28 10:58:24;;;;;;;14.80;11.57;;;5.10;99.90;;;;;;5099609;28;20044;-69
2023/01/28 11:01:00;;;;;;;14.05;10.75;;;5.10;99.90;;;;;;5100698;28;20055;-69
2023/01/28 11:03:26;;;;;;;12.60;9.40;;;5.30;99.90;;;;;;5098492;28;20042;-69
2023/01/28 11:05:56;;;;;;;11.98;9.60;;;5.40;99.90;;;;;;5096753;28;20039;-69
2023/01/28 11:08:26;;;;;;;11.27;9.80;;;5.50;99.90;;;;;;5101282;28;20748;-69
2023/01/28 11:10:54;;;;;;;15.35;10.15;;;5.50;99.90;;;;;;5100909;28;20038;-69
2023/01/28 11:13:22;;;;;;;12.80;10.52;;;5.50;99.90;;;;;;5089286;28;20111;-69
2023/01/28 11:16:00;;;;;;;13.60;12.10;;;5.50;99.90;;;;;;5096357;28;20050;-69
2023/01/28 11:18:30;;;;;;;15.13;11.73;;;5.50;99.90;;;;;;5096139;28;20063;-68
2023/01/28 11:21:02;;;;;;;12.73;11.02;;;5.50;99.90;;;;;;5097814;28;20048;-68
2023/01/28 11:23:35;;;;;;;13.23;10.70;;;5.60;99.90;;;;;;5104767;28;20051;-69
2023/01/28 11:26:23;;;;;;;10.73;9.43;;;5.60;99.90;;;;;;5104163;28;20047;-69
2023/01/28 11:28:51;;;;;;;14.63;10.57;;;5.60;99.90;;;;;;5102279;28;20122;-68
2023/01/28 11:31:19;;;;;;;12.88;9.63;;;5.80;99.90;;;;;;5095888;28;20797;-68
2023/01/28 11:33:55;;;;;;;12.70;10.77;;;6.00;99.90;;;;;;5104560;28;20059;-69
2023/01/28 11:36:27;;;;;;;12.65;10.38;;;6.10;99.90;;;;;;5092664;28;20495;-68
2023/01/28 11:38:54;;;;;;;12.02;10.27;;;6.30;99.90;;;;;;5088609;28;20120;-69
2023/01/28 11:41:29;;;;;;;11.43;8.57;;;6.30;99.90;;;;;;5088750;28;20571;-68
2023/01/28 11:43:56;;;;;;;12.52;8.77;;;6.30;99.90;;;;;;5097626;28;20155;-69
2023/01/28 11:46:44;;;;;;;13.85;10.35;;;6.30;99.90;;;;;;5100128;28;20042;-68
2023/01/28 11:49:21;;;;;;;15.20;9.40;;;6.20;99.90;;;;;;5099326;28;20052;-68
2023/01/28 11:51:49;;;;;;;13.30;10.57;;;6.20;99.90;;;;;;5102758;28;20139;-69
2023/01/28 11:54:36;;;;;;;14.88;10.60;;;6.00;99.90;;;;;;5103551;28;20063;-68
2023/01/28 11:57:26;;;;;;;10.02;8.95;;;6.00;99.90;;;;;;5083948;28;20052;-69
2023/01/28 12:00:22;;;;;;;9.98;8.98;;;6.00;99.90;;;;;;5089208;28;20523;-69
2023/01/28 12:03:01;;;;;;;10.93;9.07;;;6.00;99.90;;;;;;5101628;28;20122;-69
2023/01/28 12:05:50;;;;;;;12.02;9.60;;;6.00;99.90;;;;;;5122411;27;20044;-69
2023/01/28 12:08:45;;;;;;;10.52;8.82;;;6.00;99.90;;;;;;5103752;28;20043;-69
2023/01/28 12:12:13;;;;;;;13.60;9.77;;;6.00;99.90;;;;;;5096826;28;20817;-69
2023/01/28 12:14:42;;;;;;;11.60;9.43;;;5.90;99.90;;;;;;5102129;28;20062;-68
2023/01/28 12:17:10;;;;;;;10.75;8.80;;;5.90;99.90;;;;;;5100659;28;20128;-69
2023/01/28 12:19:56;;;;;;;13.00;10.02;;;5.90;99.90;;;;;;5098785;28;20099;-68
2023/01/28 12:22:38;;;;;;;11.75;9.70;;;5.90;99.90;;;;;;5100998;28;20035;-68
2023/01/28 12:25:32;;;;;;;14.35;10.10;;;5.90;99.90;;;;;;5097090;28;20074;-69
2023/01/28 12:28:16;;;;;;;12.27;9.40;;;5.90;99.90;;;;;;5051161;28;20059;-69
2023/01/28 12:31:00;;;;;;;11.32;9.30;;;5.90;99.90;;;;;;5095671;28;20052;-68
2023/01/28 12:33:45;;;;;;;10.88;8.63;;;5.90;99.90;;;;;;5091829;28;20060;-69
2023/01/28 12:36:32;;;;;;;11.43;9.57;;;5.90;99.90;;;;;;5097637;28;20069;-69
2023/01/28 12:39:16;;;;;;;14.43;9.98;;;5.90;99.90;;;;;;5106995;28;20055;-69
2023/01/28 12:41:48;;;;;;;11.23;9.32;;;5.80;99.90;;;;;;5116135;27;20054;-69
2023/01/28 12:44:24;;;;;;;13.70;11.07;;;5.80;99.90;;;;;;5106537;28;20044;-68
2023/01/28 12:47:06;;;;;;;14.25;10.05;;;5.80;99.90;;;;;;5101071;28;20043;-68
2023/01/28 12:49:44;;;;;;;14.32;10.52;;;5.70;99.90;;;;;;5098458;28;20404;-69
2023/01/28 12:52:17;;;;;;;13.57;9.82;;;5.70;99.90;;;;;;5104628;28;20047;-68
2023/01/28 12:55:14;;;;;;;12.95;10.43;;;5.70;99.90;;;;;;5096504;28;20515;-68
2023/01/28 12:57:40;;;;;;;12.48;9.63;;;5.70;99.90;;;;;;5096057;28;20044;-69
2023/01/28 13:00:48;;;;;;;12.32;10.48;;;5.60;99.90;;;;;;5094310;28;20140;-69
2023/01/28 13:03:37;;;;;;;11.77;9.90;;;5.70;99.90;;;;;;5084299;28;20051;-69
2023/01/28 13:06:11;;;;;;;12.70;10.32;;;5.70;99.90;;;;;;5094716;28;20549;-68
2023/01/28 13:08:37;;;;;;;11.43;9.77;;;5.70;99.90;;;;;;5107598;28;20432;-69
2023/01/28 13:11:04;;;;;;;12.02;10.18;;;5.70;99.90;;;;;;5100540;28;20073;-68
2023/01/28 13:13:35;;;;;;;14.13;10.65;;;5.80;99.90;;;;;;5098319;28;20054;-68
2023/01/28 13:16:02;;;;;;;15.63;10.75;;;5.80;99.90;;;;;;5095944;28;20051;-68
2023/01/28 13:18:41;;;;;;;13.63;10.25;;;5.80;99.90;;;;;;5095040;28;20044;-73
2023/01/28 13:21:13;;;;;;;13.35;10.48;;;5.80;99.90;;;;;;5086254;28;20497;-69
2023/01/28 13:23:48;;;;;;;11.40;9.13;;;5.90;99.90;;;;;;5091937;28;20052;-69
2023/01/28 13:26:17;;;;;;;11.88;10.25;;;5.90;99.90;;;;;;5087349;28;20044;-69